createdAt,value
2016-12-27T00:00:04.118Z,19.08
2016-12-27T00:01:14.097Z,19.11
2016-12-27T00:02:24.053Z,19.07
2016-12-27T00:03:34.005Z,19.07
2016-12-27T00:04:44.005Z,19.07
2016-12-27T00:05:53.952Z,19.11
2016-12-27T00:07:03.917Z,19.08
2016-12-27T00:08:14.179Z,19.05
2016-12-27T00:09:24.128Z,19.05
2016-12-27T00:10:34.386Z,18.98
2016-12-27T00:11:44.021Z,19.08
2016-12-27T00:12:54.281Z,19.01
2016-12-27T00:14:04.261Z,19.05
2016-12-27T00:15:14.210Z,19.07
2016-12-27T00:16:24.159Z,19.11
2016-12-27T00:17:34.118Z,19.11
2016-12-27T00:18:44.380Z,19.08
2016-12-27T00:19:54.020Z,19.09
2016-12-27T00:21:04.300Z,19.08
2016-12-27T00:22:14.262Z,19.11
2016-12-27T00:23:24.543Z,19.08
2016-12-27T00:24:34.495Z,19
2016-12-27T00:25:44.453Z,19.05
2016-12-27T00:26:54.095Z,19.08
2016-12-27T00:28:04.363Z,19.07
2016-12-27T00:29:14.008Z,19.01
2016-12-27T00:30:24.276Z,19.07
2016-12-27T00:31:34.238Z,19.15
2016-12-27T00:32:44.215Z,19.05
2016-12-27T00:33:54.491Z,19.08
2016-12-27T00:35:04.138Z,19.08
2016-12-27T00:36:14.420Z,19.08
2016-12-27T00:37:24.387Z,19.09
2016-12-27T00:38:34.349Z,19.07
2016-12-27T00:39:43.997Z,19.08
2016-12-27T00:40:53.930Z,19.08
2016-12-27T00:42:03.878Z,19.01
2016-12-27T00:43:14.131Z,19.07
2016-12-27T00:44:24.387Z,19.08
2016-12-27T00:45:34.336Z,19.07
2016-12-27T00:46:44.297Z,19.08
2016-12-27T00:47:54.540Z,19.11
2016-12-27T00:49:04.826Z,19.07
2016-12-27T00:50:15.094Z,18.98
2016-12-27T00:51:25.373Z,19.12
2016-12-27T00:52:35.619Z,19.05
2016-12-27T00:53:45.888Z,19.01
2016-12-27T00:54:56.153Z,19.07
2016-12-27T00:56:05.793Z,19.15
2016-12-27T00:57:16.049Z,19.07
2016-12-27T00:58:25.997Z,19.09
2016-12-27T00:59:36.262Z,19.11
2016-12-27T01:00:46.523Z,19.07
2016-12-27T01:01:56.809Z,19.05
2016-12-27T01:03:07.071Z,19
2016-12-27T01:04:17.327Z,19.11
2016-12-27T01:05:27.590Z,19.05
2016-12-27T01:06:37.558Z,19.08
2016-12-27T01:07:47.503Z,19.08
2016-12-27T01:08:57.771Z,19.08
2016-12-27T01:10:07.740Z,19.07
2016-12-27T01:11:17.999Z,19.15
2016-12-27T01:12:27.951Z,19.11
2016-12-27T01:13:38.208Z,19.08
2016-12-27T01:14:47.548Z,19.07
2016-12-27T01:15:57.820Z,19.05
2016-12-27T01:17:08.076Z,19.07
2016-12-27T01:18:17.413Z,19.08
2016-12-27T01:19:27.678Z,19.11
2016-12-27T01:20:37.636Z,19.09
2016-12-27T01:21:47.592Z,19.11
2016-12-27T01:22:57.836Z,19.04
2016-12-27T01:24:07.481Z,19.09
2016-12-27T01:25:17.734Z,19.08
2016-12-27T01:26:27.685Z,19.09
2016-12-27T01:27:37.026Z,19.09
2016-12-27T01:28:47.298Z,19.11
2016-12-27T01:29:57.574Z,19.11
2016-12-27T01:31:07.219Z,19.08
2016-12-27T01:32:17.161Z,19.07
2016-12-27T01:33:27.416Z,19.08
2016-12-27T01:34:37.359Z,19.07
2016-12-27T01:35:47.621Z,19.08
2016-12-27T01:36:57.887Z,19.11
2016-12-27T01:38:07.846Z,19.07
2016-12-27T01:39:17.804Z,19.08
2016-12-27T01:40:28.066Z,19.05
2016-12-27T01:41:38.270Z,19.09
2016-12-27T01:42:48.521Z,19.01
2016-12-27T01:43:58.482Z,19.05
2016-12-27T01:45:08.437Z,19.07
2016-12-27T01:46:18.380Z,19.05
2016-12-27T01:47:28.054Z,19.08
2016-12-27T01:48:38.005Z,19.04
2016-12-27T01:49:47.645Z,19.08
2016-12-27T01:50:57.909Z,19.04
2016-12-27T01:52:07.853Z,19.11
2016-12-27T01:53:17.497Z,19.08
2016-12-27T01:54:27.433Z,19.08
2016-12-27T01:55:37.388Z,19.05
2016-12-27T01:56:47.641Z,19.07
2016-12-27T01:57:57.910Z,19.08
2016-12-27T01:59:07.548Z,19.09
2016-12-27T02:00:17.517Z,19.05
2016-12-27T02:01:27.398Z,19.08
2016-12-27T02:02:37.350Z,19.08
2016-12-27T02:03:47.309Z,19.04
2016-12-27T02:04:57.574Z,19.09
2016-12-27T02:06:07.833Z,19.07
2016-12-27T02:07:18.115Z,19.05
2016-12-27T02:08:28.064Z,19.07
2016-12-27T02:09:38.022Z,19.05
2016-12-27T02:10:47.968Z,19.05
2016-12-27T02:11:57.921Z,19.04
2016-12-27T02:13:07.596Z,19.04
2016-12-27T02:14:17.866Z,19.05
2016-12-27T02:15:27.527Z,19.08
2016-12-27T02:16:37.796Z,19.08
2016-12-27T02:17:47.738Z,19.04
2016-12-27T02:18:57.710Z,19.07
2016-12-27T02:20:07.975Z,19.04
2016-12-27T02:21:18.224Z,19.11
2016-12-27T02:22:28.500Z,19.08
2016-12-27T02:23:38.752Z,19.11
2016-12-27T02:24:48.701Z,19.08
2016-12-27T02:25:58.644Z,19.05
2016-12-27T02:27:08.583Z,19.09
2016-12-27T02:28:18.834Z,19.05
2016-12-27T02:29:28.794Z,19.09
2016-12-27T02:30:39.065Z,19.07
2016-12-27T02:31:49.316Z,19.09
2016-12-27T02:32:59.587Z,19.01
2016-12-27T02:34:09.847Z,19.05
2016-12-27T02:35:19.796Z,19.07
2016-12-27T02:36:29.121Z,19.04
2016-12-27T02:37:39.073Z,19.08
2016-12-27T02:38:49.342Z,19.08
2016-12-27T02:39:58.987Z,19.05
2016-12-27T02:41:09.252Z,19.08
2016-12-27T02:42:18.887Z,19.09
2016-12-27T02:43:29.143Z,19.08
2016-12-27T02:44:39.418Z,19.05
2016-12-27T02:45:49.358Z,19.07
2016-12-27T02:46:59.303Z,19.05
2016-12-27T02:48:09.263Z,19.05
2016-12-27T02:49:19.530Z,19.09
2016-12-27T02:50:29.788Z,19.08
2016-12-27T02:51:39.749Z,19.05
2016-12-27T02:52:49.697Z,19.08
2016-12-27T02:53:59.956Z,19.08
2016-12-27T02:55:09.601Z,19.09
2016-12-27T02:56:19.238Z,19.11
2016-12-27T02:57:28.573Z,19.08
2016-12-27T02:58:38.214Z,19
2016-12-27T02:59:48.160Z,19.04
2016-12-27T03:00:57.798Z,19.04
2016-12-27T03:02:08.073Z,19.07
2016-12-27T03:03:18.022Z,19.05
2016-12-27T03:04:28.403Z,19.08
2016-12-27T03:05:38.662Z,19.08
2016-12-27T03:06:48.300Z,19.01
2016-12-27T03:07:57.942Z,19.09
2016-12-27T03:09:07.583Z,19.05
2016-12-27T03:10:17.845Z,19.07
2016-12-27T03:11:27.487Z,19.04
2016-12-27T03:12:37.759Z,19.07
2016-12-27T03:13:47.710Z,19.04
2016-12-27T03:14:57.653Z,19.07
2016-12-27T03:16:07.902Z,19.07
2016-12-27T03:17:17.858Z,19.09
2016-12-27T03:18:28.117Z,19.04
2016-12-27T03:19:37.755Z,19.11
2016-12-27T03:20:48.043Z,19.09
2016-12-27T03:21:58.001Z,19.04
2016-12-27T03:23:07.332Z,19.05
2016-12-27T03:24:17.278Z,19.04
2016-12-27T03:25:27.240Z,19.08
2016-12-27T03:26:37.488Z,19.11
2016-12-27T03:27:47.434Z,19.11
2016-12-27T03:28:57.069Z,19
2016-12-27T03:30:07.377Z,19.04
2016-12-27T03:31:17.332Z,19.08
2016-12-27T03:32:27.379Z,19.04
2016-12-27T03:33:37.328Z,19.11
2016-12-27T03:34:47.578Z,19.08
2016-12-27T03:35:57.536Z,19.05
2016-12-27T03:37:07.798Z,19.09
2016-12-27T03:38:17.754Z,19.04
2016-12-27T03:39:27.399Z,19.01
2016-12-27T03:40:37.350Z,19.04
2016-12-27T03:41:47.005Z,19.08
2016-12-27T03:42:56.784Z,19.09
2016-12-27T03:44:07.033Z,19.08
2016-12-27T03:45:17.289Z,19.04
2016-12-27T03:46:27.232Z,19.07
2016-12-27T03:47:37.177Z,19.01
2016-12-27T03:48:47.439Z,19.09
2016-12-27T03:49:57.697Z,19.05
2016-12-27T03:51:07.334Z,19.05
2016-12-27T03:52:17.279Z,19.08
2016-12-27T03:53:27.228Z,19.04
2016-12-27T03:54:37.490Z,19.04
2016-12-27T03:55:47.448Z,19.07
2016-12-27T03:56:57.720Z,19.05
2016-12-27T03:58:07.671Z,19.07
2016-12-27T03:59:17.003Z,19.04
2016-12-27T04:00:27.259Z,19.01
2016-12-27T04:01:37.529Z,19.07
2016-12-27T04:02:47.783Z,19.01
2016-12-27T04:03:57.463Z,19.11
2016-12-27T04:05:07.434Z,19.07
2016-12-27T04:06:17.698Z,19.07
2016-12-27T04:07:27.360Z,19.04
2016-12-27T04:08:37.603Z,19.05
2016-12-27T04:09:47.555Z,19.01
2016-12-27T04:10:57.816Z,19.04
2016-12-27T04:12:08.073Z,19.11
2016-12-27T04:13:18.028Z,19.15
2016-12-27T04:14:28.077Z,19.05
2016-12-27T04:15:38.019Z,19.04
2016-12-27T04:16:48.285Z,19.07
2016-12-27T04:17:58.234Z,19.01
2016-12-27T04:19:07.879Z,19.11
2016-12-27T04:20:17.216Z,19.05
2016-12-27T04:21:27.149Z,19.01
2016-12-27T04:22:37.102Z,19.04
2016-12-27T04:23:47.067Z,19.08
2016-12-27T04:24:57.009Z,19.05
2016-12-27T04:26:06.961Z,19.05
2016-12-27T04:27:16.923Z,19.01
2016-12-27T04:28:26.872Z,19.05
2016-12-27T04:29:37.372Z,19.05
2016-12-27T04:30:47.644Z,19.09
2016-12-27T04:31:57.908Z,19.07
2016-12-27T04:33:07.862Z,19.07
2016-12-27T04:34:18.124Z,19.12
2016-12-27T04:35:28.381Z,19.12
2016-12-27T04:36:38.643Z,19.09
2016-12-27T04:37:48.276Z,19.04
2016-12-27T04:38:58.538Z,19.07
2016-12-27T04:40:08.800Z,19.05
2016-12-27T04:41:18.752Z,19.09
2016-12-27T04:42:29.011Z,19.07
2016-12-27T04:43:39.273Z,19.04
2016-12-27T04:44:49.204Z,19.01
2016-12-27T04:45:59.467Z,19.04
2016-12-27T04:47:08.782Z,19.07
2016-12-27T04:48:18.743Z,19.08
2016-12-27T04:49:28.369Z,19.07
2016-12-27T04:50:38.319Z,19.07
2016-12-27T04:51:48.597Z,19.07
2016-12-27T04:52:58.872Z,19.08
2016-12-27T04:54:08.506Z,19.07
2016-12-27T04:55:18.142Z,19.04
2016-12-27T04:56:28.401Z,19.07
2016-12-27T04:57:38.661Z,19.05
2016-12-27T04:58:48.305Z,19.08
2016-12-27T04:59:58.558Z,19
2016-12-27T05:01:08.515Z,19.01
2016-12-27T05:02:18.143Z,19.07
2016-12-27T05:03:28.091Z,18.98
2016-12-27T05:04:38.347Z,19.07
2016-12-27T05:05:48.293Z,19.05
2016-12-27T05:06:58.261Z,19.04
2016-12-27T05:08:08.526Z,19.08
2016-12-27T05:09:18.824Z,19
2016-12-27T05:10:29.083Z,19.07
2016-12-27T05:11:39.057Z,19.05
2016-12-27T05:12:48.710Z,19.07
2016-12-27T05:13:58.350Z,19.07
2016-12-27T05:15:08.305Z,19.05
2016-12-27T05:16:17.949Z,19.08
2016-12-27T05:17:27.892Z,19.11
2016-12-27T05:18:37.214Z,19.05
2016-12-27T05:19:47.173Z,19.05
2016-12-27T05:20:57.427Z,19.11
2016-12-27T05:22:07.060Z,19.04
2016-12-27T05:23:17.027Z,19.04
2016-12-27T05:24:26.669Z,19.04
2016-12-27T05:25:36.631Z,19.07
2016-12-27T05:26:46.600Z,19.08
2016-12-27T05:27:56.576Z,19.05
2016-12-27T05:29:06.851Z,19.07
2016-12-27T05:30:16.196Z,19.08
2016-12-27T05:31:26.448Z,19.05
2016-12-27T05:32:36.409Z,19.08
2016-12-27T05:33:46.376Z,19.05
2016-12-27T05:34:56.832Z,19.11
2016-12-27T05:36:06.793Z,19.04
2016-12-27T05:37:16.760Z,19.11
2016-12-27T05:38:27.065Z,19.11
2016-12-27T05:39:37.014Z,19.01
2016-12-27T05:40:46.966Z,19.08
2016-12-27T05:41:56.915Z,19.08
2016-12-27T05:43:06.556Z,19.08
2016-12-27T05:44:16.511Z,19.08
2016-12-27T05:45:26.787Z,19.05
2016-12-27T05:46:36.438Z,19.04
2016-12-27T05:47:46.691Z,19.07
2016-12-27T05:48:56.655Z,19.04
2016-12-27T05:50:06.617Z,19.11
2016-12-27T05:51:16.252Z,19.08
2016-12-27T05:52:25.906Z,19.05
2016-12-27T05:53:36.165Z,19.09
2016-12-27T05:54:46.428Z,19.05
2016-12-27T05:55:56.841Z,19.08
2016-12-27T05:57:06.177Z,19.05
2016-12-27T05:58:16.454Z,19.07
2016-12-27T05:59:26.722Z,19.11
2016-12-27T06:00:36.978Z,19.11
2016-12-27T06:01:46.636Z,19.11
2016-12-27T06:02:56.597Z,19.05
2016-12-27T06:04:06.866Z,19.05
2016-12-27T06:05:16.204Z,19.07
2016-12-27T06:06:26.147Z,19.05
2016-12-27T06:07:35.476Z,19.05
2016-12-27T06:08:45.127Z,19.09
2016-12-27T06:09:55.085Z,19.08
2016-12-27T06:11:05.345Z,19.08
2016-12-27T06:12:15.618Z,19.08
2016-12-27T06:13:25.880Z,19.15
2016-12-27T06:14:36.168Z,19.11
2016-12-27T06:15:45.802Z,19.08
2016-12-27T06:16:55.441Z,19.07
2016-12-27T06:18:05.388Z,19.08
2016-12-27T06:19:15.644Z,19.09
2016-12-27T06:20:26.360Z,19.07
2016-12-27T06:21:36.306Z,19.08
2016-12-27T06:22:46.241Z,19.05
2016-12-27T06:23:56.207Z,19.09
2016-12-27T06:25:05.535Z,19.08
2016-12-27T06:26:15.481Z,19.08
2016-12-27T06:27:25.114Z,19.05
2016-12-27T06:28:35.372Z,19.08
2016-12-27T06:29:45.330Z,19.07
2016-12-27T06:30:55.283Z,19.04
2016-12-27T06:32:05.223Z,19.05
2016-12-27T06:33:15.479Z,19.07
2016-12-27T06:34:25.430Z,19.01
2016-12-27T06:35:35.681Z,19.07
2016-12-27T06:36:45.927Z,19.08
2016-12-27T06:37:55.569Z,19.09
2016-12-27T06:39:05.857Z,19.08
2016-12-27T06:40:16.128Z,19.11
2016-12-27T06:41:26.403Z,19.07
2016-12-27T06:42:36.661Z,19.05
2016-12-27T06:43:46.619Z,19.05
2016-12-27T06:44:56.561Z,19.08
2016-12-27T06:46:06.827Z,19.08
2016-12-27T06:47:16.467Z,19.05
2016-12-27T06:48:26.748Z,19.05
2016-12-27T06:49:37.026Z,19.07
2016-12-27T06:50:46.976Z,19.04
2016-12-27T06:51:57.237Z,19.08
2016-12-27T06:53:07.187Z,19.09
2016-12-27T06:54:17.135Z,19.07
2016-12-27T06:55:27.068Z,19.11
2016-12-27T06:56:37.029Z,19.05
2016-12-27T06:57:47.283Z,19.11
2016-12-27T06:58:56.610Z,19.04
2016-12-27T07:00:06.892Z,19.08
2016-12-27T07:01:16.846Z,19.09
2016-12-27T07:02:27.108Z,19.05
2016-12-27T07:03:37.378Z,19.05
2016-12-27T07:04:47.634Z,19.11
2016-12-27T07:05:57.272Z,19.05
2016-12-27T07:07:07.557Z,19.08
2016-12-27T07:08:17.204Z,19.07
2016-12-27T07:09:27.143Z,19.05
2016-12-27T07:10:37.087Z,19.05
2016-12-27T07:11:47.037Z,19.16
2016-12-27T07:12:57.448Z,19.07
2016-12-27T07:14:07.095Z,19.17
2016-12-27T07:15:17.044Z,19.04
2016-12-27T07:16:27.309Z,19.2
2016-12-27T07:17:37.559Z,19.11
2016-12-27T07:18:47.201Z,19.15
2016-12-27T07:19:57.162Z,19.15
2016-12-27T07:21:07.424Z,19.17
2016-12-27T07:22:17.062Z,19.16
2016-12-27T07:23:27.020Z,19.19
2016-12-27T07:24:37.166Z,19.19
2016-12-27T07:25:47.431Z,19.15
2016-12-27T07:26:57.699Z,19.15
2016-12-27T07:28:07.959Z,19.2
2016-12-27T07:29:17.604Z,19.16
2016-12-27T07:30:27.565Z,19.15
2016-12-27T07:31:36.906Z,19.17
2016-12-27T07:32:46.871Z,19.17
2016-12-27T07:33:56.532Z,19.2
2016-12-27T07:35:06.811Z,19.17
2016-12-27T07:36:16.450Z,19.19
2016-12-27T07:37:26.400Z,19.19
2016-12-27T07:38:36.355Z,19.17
2016-12-27T07:39:46.288Z,19.16
2016-12-27T07:40:56.548Z,19.23
2016-12-27T07:42:06.829Z,19.17
2016-12-27T07:43:16.787Z,19.17
2016-12-27T07:44:26.752Z,19.2
2016-12-27T07:45:36.737Z,19.19
2016-12-27T07:46:46.995Z,19.17
2016-12-27T07:47:56.938Z,19.22
2016-12-27T07:49:07.202Z,19.19
2016-12-27T07:50:17.151Z,19.17
2016-12-27T07:51:27.420Z,19.19
2016-12-27T07:52:37.069Z,19.12
2016-12-27T07:53:47.041Z,19.22
2016-12-27T07:54:57.328Z,19.08
2016-12-27T07:56:07.290Z,19.2
2016-12-27T07:57:17.249Z,19.2
2016-12-27T07:58:27.517Z,19.17
2016-12-27T07:59:37.791Z,19.22
2016-12-27T08:00:47.425Z,19.19
2016-12-27T08:01:57.379Z,19.15
2016-12-27T08:03:07.339Z,19.2
2016-12-27T08:04:17.297Z,19.16
2016-12-27T08:05:27.562Z,19.22
2016-12-27T08:06:37.827Z,19.22
2016-12-27T08:07:48.093Z,19.23
2016-12-27T08:08:58.355Z,19.22
2016-12-27T08:10:08.615Z,19.22
2016-12-27T08:11:18.572Z,19.22
2016-12-27T08:12:28.551Z,19.27
2016-12-27T08:13:38.518Z,19.24
2016-12-27T08:14:48.470Z,19.26
2016-12-27T08:15:58.743Z,19.29
2016-12-27T08:17:08.704Z,19.34
2016-12-27T08:18:18.972Z,19.29
2016-12-27T08:19:29.260Z,19.26
2016-12-27T08:20:39.511Z,19.23
2016-12-27T08:21:49.473Z,19.29
2016-12-27T08:22:59.750Z,19.29
2016-12-27T08:24:09.402Z,19.34
2016-12-27T08:25:19.667Z,19.3
2016-12-27T08:26:29.309Z,19.24
2016-12-27T08:27:39.258Z,19.27
2016-12-27T08:28:49.241Z,19.27
2016-12-27T08:29:59.191Z,19.24
2016-12-27T08:31:08.829Z,19.27
2016-12-27T08:32:19.133Z,19.26
2016-12-27T08:33:29.395Z,19.32
2016-12-27T08:34:39.366Z,19.34
2016-12-27T08:35:49.639Z,19.26
2016-12-27T08:36:59.901Z,19.27
2016-12-27T08:38:09.870Z,19.29
2016-12-27T08:39:19.524Z,19.3
2016-12-27T08:40:29.795Z,19.23
2016-12-27T08:41:39.747Z,19.26
2016-12-27T08:42:49.392Z,19.24
2016-12-27T08:43:59.355Z,19.27
2016-12-27T08:45:09.309Z,19.24
2016-12-27T08:46:19.601Z,19.27
2016-12-27T08:47:29.243Z,19.27
2016-12-27T08:48:39.190Z,19.27
2016-12-27T08:49:49.146Z,19.26
2016-12-27T08:50:59.092Z,19.23
2016-12-27T08:52:09.039Z,19.23
2016-12-27T08:53:19.300Z,19.2
2016-12-27T08:54:29.258Z,19.27
2016-12-27T08:55:38.948Z,19.3
2016-12-27T08:56:49.217Z,19.24
2016-12-27T08:57:59.166Z,19.27
2016-12-27T08:59:08.807Z,19.29
2016-12-27T09:00:19.072Z,19.26
2016-12-27T09:01:29.018Z,19.24
2016-12-27T09:02:38.967Z,19.3
2016-12-27T09:03:49.227Z,19.26
2016-12-27T09:04:58.859Z,19.3
2016-12-27T09:06:08.833Z,19.26
2016-12-27T09:07:18.795Z,19.3
2016-12-27T09:08:28.785Z,19.32
2016-12-27T09:09:39.050Z,19.3
2016-12-27T09:10:48.998Z,19.3
2016-12-27T09:11:59.250Z,19.2
2016-12-27T09:13:09.211Z,19.27
2016-12-27T09:14:19.463Z,19.34
2016-12-27T09:15:29.112Z,19.23
2016-12-27T09:16:39.380Z,19.3
2016-12-27T09:17:49.025Z,19.29
2016-12-27T09:18:58.667Z,19.27
2016-12-27T09:20:08.017Z,19.24
2016-12-27T09:21:17.979Z,19.27
2016-12-27T09:22:28.235Z,19.26
2016-12-27T09:23:38.174Z,19.32
2016-12-27T09:24:48.144Z,19.24
2016-12-27T09:25:58.404Z,19.27
2016-12-27T09:27:08.299Z,19.3
2016-12-27T09:28:17.940Z,19.29
2016-12-27T09:29:28.210Z,19.3
2016-12-27T09:30:38.161Z,19.27
2016-12-27T09:31:48.150Z,19.32
2016-12-27T09:32:58.097Z,19.34
2016-12-27T09:34:07.742Z,19.29
2016-12-27T09:35:17.694Z,19.24
2016-12-27T09:36:27.363Z,19.32
2016-12-27T09:37:37.307Z,19.32
2016-12-27T09:38:47.297Z,19.3
2016-12-27T09:39:56.625Z,19.24
2016-12-27T09:41:06.890Z,19.26
2016-12-27T09:42:17.153Z,19.34
2016-12-27T09:43:26.800Z,19.34
2016-12-27T09:44:36.439Z,19.42
2016-12-27T09:45:46.391Z,19.42
2016-12-27T09:46:56.672Z,19.39
2016-12-27T09:48:06.941Z,19.39
2016-12-27T09:49:17.219Z,19.39
2016-12-27T09:50:27.494Z,19.3
2016-12-27T09:51:37.769Z,19.38
2016-12-27T09:52:47.421Z,19.35
2016-12-27T09:53:57.689Z,19.41
2016-12-27T09:55:07.651Z,19.35
2016-12-27T09:56:17.913Z,19.3
2016-12-27T09:57:27.564Z,19.35
2016-12-27T09:58:37.536Z,19.38
2016-12-27T09:59:47.501Z,19.34
2016-12-27T10:00:57.468Z,19.37
2016-12-27T10:02:07.736Z,19.35
2016-12-27T10:03:17.689Z,19.38
2016-12-27T10:04:27.961Z,19.37
2016-12-27T10:05:37.910Z,19.37
2016-12-27T10:06:47.872Z,19.35
2016-12-27T10:07:57.215Z,19.38
2016-12-27T10:09:06.868Z,19.32
2016-12-27T10:10:16.813Z,19.35
2016-12-27T10:11:26.160Z,19.29
2016-12-27T10:12:36.128Z,19.37
2016-12-27T10:13:46.394Z,19.38
2016-12-27T10:14:56.672Z,19.39
2016-12-27T10:16:06.637Z,19.37
2016-12-27T10:17:16.310Z,19.3
2016-12-27T10:18:26.582Z,19.38
2016-12-27T10:19:36.848Z,19.37
2016-12-27T10:20:46.192Z,19.37
2016-12-27T10:21:56.134Z,19.35
2016-12-27T10:23:06.077Z,19.37
2016-12-27T10:24:16.051Z,19.32
2016-12-27T10:25:25.724Z,19.37
2016-12-27T10:26:35.376Z,19.38
2016-12-27T10:27:45.334Z,19.34
2016-12-27T10:28:55.616Z,19.39
2016-12-27T10:30:05.580Z,19.37
2016-12-27T10:31:15.538Z,19.39
2016-12-27T10:32:25.503Z,19.45
2016-12-27T10:33:35.774Z,19.44
2016-12-27T10:34:46.040Z,19.44
2016-12-27T10:35:55.688Z,19.42
2016-12-27T10:37:05.640Z,19.35
2016-12-27T10:38:15.598Z,19.48
2016-12-27T10:39:25.569Z,19.39
2016-12-27T10:40:35.588Z,19.48
2016-12-27T10:41:45.537Z,19.44
2016-12-27T10:42:55.815Z,19.41
2016-12-27T10:44:06.090Z,19.47
2016-12-27T10:45:16.359Z,19.48
2016-12-27T10:46:26.320Z,19.48
2016-12-27T10:47:36.595Z,19.44
2016-12-27T10:48:46.852Z,19.41
2016-12-27T10:49:57.116Z,19.42
2016-12-27T10:51:06.770Z,19.45
2016-12-27T10:52:16.729Z,19.48
2016-12-27T10:53:26.672Z,19.38
2016-12-27T10:54:36.621Z,19.44
2016-12-27T10:55:45.663Z,19.45
2016-12-27T10:56:55.664Z,19.44
2016-12-27T10:58:05.321Z,19.47
2016-12-27T10:59:15.606Z,19.42
2016-12-27T11:00:25.919Z,19.48
2016-12-27T11:01:36.212Z,19.45
2016-12-27T11:02:46.191Z,19.48
2016-12-27T11:03:55.835Z,19.48
2016-12-27T11:05:06.104Z,19.38
2016-12-27T11:06:16.365Z,19.37
2016-12-27T11:07:26.331Z,19.32
2016-12-27T11:08:36.595Z,19.42
2016-12-27T11:09:46.260Z,19.34
2016-12-27T11:10:55.913Z,19.38
2016-12-27T11:12:05.878Z,19.34
2016-12-27T11:13:15.832Z,19.3
2016-12-27T11:14:25.484Z,19.27
2016-12-27T11:15:35.752Z,19.29
2016-12-27T11:16:46.036Z,19.27
2016-12-27T11:17:56.297Z,19.27
2016-12-27T11:19:06.264Z,19.26
2016-12-27T11:20:16.218Z,19.24
2016-12-27T11:21:26.196Z,19.27
2016-12-27T11:22:36.474Z,19.29
2016-12-27T11:23:46.745Z,19.27
2016-12-27T11:24:56.401Z,19.29
2016-12-27T11:26:06.385Z,19.27
2016-12-27T11:27:17.053Z,19.27
2016-12-27T11:28:27.321Z,19.26
2016-12-27T11:29:36.968Z,19.27
2016-12-27T11:30:46.931Z,19.29
2016-12-27T11:31:56.879Z,19.29
2016-12-27T11:33:06.837Z,19.27
2016-12-27T11:34:16.811Z,19.27
2016-12-27T11:35:27.122Z,19.29
2016-12-27T11:36:37.384Z,19.29
2016-12-27T11:37:47.646Z,19.26
2016-12-27T11:38:57.300Z,19.29
2016-12-27T11:40:07.268Z,19.29
2016-12-27T11:41:17.220Z,19.29
2016-12-27T11:42:27.184Z,19.29
2016-12-27T11:43:37.447Z,19.29
2016-12-27T11:44:47.095Z,19.3
2016-12-27T11:45:57.056Z,19.24
2016-12-27T11:47:06.996Z,19.29
2016-12-27T11:48:16.954Z,19.29
2016-12-27T11:49:26.906Z,19.29
2016-12-27T11:50:36.564Z,19.29
2016-12-27T11:51:46.234Z,19.27
2016-12-27T11:52:56.195Z,19.29
2016-12-27T11:54:06.156Z,19.27
2016-12-27T11:55:16.112Z,19.3
2016-12-27T11:56:26.063Z,19.23
2016-12-27T11:57:36.339Z,19.26
2016-12-27T11:58:46.611Z,19.3
2016-12-27T11:59:56.268Z,19.24
2016-12-27T12:01:06.236Z,19.29
2016-12-27T12:02:16.498Z,19.27
2016-12-27T12:03:26.462Z,19.26
2016-12-27T12:04:36.722Z,19.29
2016-12-27T12:05:47.006Z,19.29
2016-12-27T12:06:57.276Z,19.27
2016-12-27T12:08:07.556Z,19.23
2016-12-27T12:09:17.505Z,19.24
2016-12-27T12:10:27.151Z,19.3
2016-12-27T12:11:37.440Z,19.26
2016-12-27T12:12:47.719Z,19.27
2016-12-27T12:13:57.179Z,19.29
2016-12-27T12:15:06.846Z,19.29
2016-12-27T12:16:16.799Z,19.26
2016-12-27T12:17:26.761Z,19.29
2016-12-27T12:18:36.405Z,19.27
2016-12-27T12:19:46.351Z,19.29
2016-12-27T12:20:56.303Z,19.26
2016-12-27T12:22:05.964Z,19.26
2016-12-27T12:23:15.637Z,19.29
2016-12-27T12:24:25.897Z,19.27
2016-12-27T12:25:36.271Z,19.29
2016-12-27T12:26:46.547Z,19.27
2016-12-27T12:27:56.198Z,19.29
2016-12-27T12:29:06.147Z,19.27
2016-12-27T12:30:16.425Z,19.29
2016-12-27T12:31:26.396Z,19.29
2016-12-27T12:32:36.671Z,19.29
2016-12-27T12:33:46.319Z,19.29
2016-12-27T12:34:56.268Z,19.29
2016-12-27T12:36:06.223Z,19.29
2016-12-27T12:37:16.488Z,19.24
2016-12-27T12:38:26.435Z,19.26
2016-12-27T12:39:36.685Z,19.29
2016-12-27T12:40:46.943Z,19.24
2016-12-27T12:41:56.912Z,19.27
2016-12-27T12:43:06.872Z,19.26
2016-12-27T12:44:17.154Z,19.23
2016-12-27T12:45:27.420Z,19.22
2016-12-27T12:46:37.388Z,19.29
2016-12-27T12:47:47.657Z,19.27
2016-12-27T12:48:57.616Z,19.32
2016-12-27T12:50:07.571Z,19.3
2016-12-27T12:51:17.539Z,19.23
2016-12-27T12:52:27.836Z,19.27
2016-12-27T12:53:37.801Z,19.3
2016-12-27T12:54:47.464Z,19.19
2016-12-27T12:55:57.738Z,19.27
2016-12-27T12:57:07.689Z,19.24
2016-12-27T12:58:17.653Z,19.29
2016-12-27T12:59:27.622Z,19.27
2016-12-27T13:00:37.564Z,19.27
2016-12-27T13:01:47.516Z,19.27
2016-12-27T13:02:57.781Z,19.3
2016-12-27T13:04:07.423Z,19.27
2016-12-27T13:05:17.378Z,19.22
2016-12-27T13:06:27.020Z,19.35
2016-12-27T13:07:37.274Z,19.24
2016-12-27T13:08:47.231Z,19.26
2016-12-27T13:09:57.190Z,19.29
2016-12-27T13:11:07.151Z,19.23
2016-12-27T13:12:16.798Z,19.22
2016-12-27T13:13:26.758Z,19.26
2016-12-27T13:14:36.728Z,19.27
2016-12-27T13:15:46.694Z,19.32
2016-12-27T13:16:56.972Z,19.22
2016-12-27T13:18:07.234Z,19.26
2016-12-27T13:19:17.192Z,19.23
2016-12-27T13:20:27.464Z,19.32
2016-12-27T13:21:37.439Z,19.23
2016-12-27T13:22:47.410Z,19.32
2016-12-27T13:23:57.676Z,19.24
2016-12-27T13:25:07.615Z,19.24
2016-12-27T13:26:17.564Z,19.29
2016-12-27T13:27:27.199Z,19.26
2016-12-27T13:28:37.161Z,19.22
2016-12-27T13:29:47.423Z,19.26
2016-12-27T13:30:57.068Z,19.2
2016-12-27T13:32:07.321Z,19.29
2016-12-27T13:33:17.577Z,19.26
2016-12-27T13:34:27.885Z,19.24
2016-12-27T13:35:38.154Z,19.27
2016-12-27T13:36:48.448Z,19.23
2016-12-27T13:37:58.713Z,19.32
2016-12-27T13:39:08.976Z,19.23
2016-12-27T13:40:18.944Z,19.26
2016-12-27T13:41:29.208Z,19.23
2016-12-27T13:42:38.574Z,19.24
2016-12-27T13:43:48.855Z,19.24
2016-12-27T13:44:58.827Z,19.24
2016-12-27T13:46:08.480Z,19.23
2016-12-27T13:47:18.443Z,19.29
2016-12-27T13:48:28.129Z,19.29
2016-12-27T13:49:38.389Z,19.26
2016-12-27T13:50:48.644Z,19.37
2016-12-27T13:51:58.599Z,19.29
2016-12-27T13:53:08.885Z,19.24
2016-12-27T13:54:18.536Z,19.29
2016-12-27T13:55:28.814Z,19.29
2016-12-27T13:56:39.090Z,19.24
2016-12-27T13:57:49.033Z,19.24
2016-12-27T13:58:59.295Z,19.37
2016-12-27T14:00:09.282Z,19.26
2016-12-27T14:01:18.925Z,19.29
2016-12-27T14:02:28.898Z,19.26
2016-12-27T14:03:39.170Z,19.29
2016-12-27T14:04:49.445Z,19.24
2016-12-27T14:05:59.385Z,19.19
2016-12-27T14:07:09.343Z,19.32
2016-12-27T14:08:19.603Z,19.29
2016-12-27T14:09:29.878Z,19.24
2016-12-27T14:10:40.163Z,19.24
2016-12-27T14:11:49.837Z,19.32
2016-12-27T14:12:59.495Z,19.24
2016-12-27T14:14:09.440Z,19.19
2016-12-27T14:15:19.715Z,19.23
2016-12-27T14:16:29.671Z,19.23
2016-12-27T14:17:39.629Z,19.24
2016-12-27T14:18:49.584Z,19.24
2016-12-27T14:19:59.565Z,19.26
2016-12-27T14:21:09.240Z,19.29
2016-12-27T14:22:19.504Z,19.19
2016-12-27T14:23:29.169Z,19.2
2016-12-27T14:24:39.441Z,19.24
2016-12-27T14:25:49.409Z,19.27
2016-12-27T14:26:59.681Z,19.24
2016-12-27T14:28:09.977Z,19.24
2016-12-27T14:29:19.627Z,19.24
2016-12-27T14:30:30.050Z,19.22
2016-12-27T14:31:40.328Z,19.2
2016-12-27T14:32:50.603Z,19.27
2016-12-27T14:34:00.632Z,19.24
2016-12-27T14:35:10.594Z,19.23
2016-12-27T14:36:20.843Z,19.17
2016-12-27T14:37:30.812Z,19.29
2016-12-27T14:38:41.098Z,19.19
2016-12-27T14:39:51.064Z,19.27
2016-12-27T14:41:01.337Z,19.2
2016-12-27T14:42:11.320Z,19.22
2016-12-27T14:43:21.264Z,19.24
2016-12-27T14:44:31.238Z,19.2
2016-12-27T14:45:41.506Z,19.23
2016-12-27T14:46:51.766Z,19.2
2016-12-27T14:48:01.117Z,19.26
2016-12-27T14:49:11.402Z,19.27
2016-12-27T14:50:21.056Z,19.2
2016-12-27T14:51:31.022Z,19.2
2016-12-27T14:52:40.967Z,19.22
2016-12-27T14:53:51.238Z,19.16
2016-12-27T14:55:00.900Z,19.12
2016-12-27T14:56:11.156Z,19.22
2016-12-27T14:57:21.136Z,19.2
2016-12-27T14:58:31.104Z,19.2
2016-12-27T14:59:41.377Z,19.19
2016-12-27T15:00:51.352Z,19.2
2016-12-27T15:02:01.620Z,19.16
2016-12-27T15:03:11.316Z,19.19